createdAt,value
2022-11-29T00:01:01.638Z,11.50
2022-11-29T00:03:29.133Z,10.88
2022-11-29T00:05:56.014Z,11.00
2022-11-29T00:08:24.055Z,10.32
2022-11-29T00:10:50.867Z,11.98
2022-11-29T00:13:17.874Z,13.30
2022-11-29T00:15:44.483Z,11.88
2022-11-29T00:18:11.017Z,11.45
2022-11-29T00:20:39.116Z,11.32
2022-11-29T00:23:05.788Z,9.85
2022-11-29T00:25:32.353Z,12.88
2022-11-29T00:27:58.889Z,12.63
2022-11-29T00:30:25.700Z,12.18
2022-11-29T00:32:52.282Z,10.70
2022-11-29T00:35:18.884Z,10.73
2022-11-29T00:37:45.448Z,12.48
2022-11-29T00:40:12.364Z,12.40
2022-11-29T00:42:39.039Z,11.85
2022-11-29T00:45:06.006Z,12.07
2022-11-29T00:47:32.605Z,10.98
2022-11-29T00:49:59.144Z,11.65
2022-11-29T00:52:25.694Z,12.80
2022-11-29T00:54:52.242Z,8.82
2022-11-29T00:57:18.805Z,10.35
2022-11-29T00:59:45.374Z,11.55
2022-11-29T01:02:12.001Z,11.32
2022-11-29T01:04:38.598Z,11.30
2022-11-29T01:07:05.178Z,10.18
2022-11-29T01:09:31.779Z,10.20
2022-11-29T01:11:58.332Z,10.73
2022-11-29T01:14:24.897Z,9.88
2022-11-29T01:16:51.518Z,7.22
2022-11-29T01:19:18.146Z,8.35
2022-11-29T01:21:44.695Z,10.40
2022-11-29T01:24:11.309Z,9.45
2022-11-29T01:26:38.154Z,10.60
2022-11-29T01:29:04.730Z,8.95
2022-11-29T01:31:36.014Z,9.20
2022-11-29T01:34:04.594Z,8.52
2022-11-29T01:36:31.477Z,10.10
2022-11-29T01:39:03.646Z,9.95
2022-11-29T01:41:32.822Z,9.43
2022-11-29T01:44:07.109Z,9.52
2022-11-29T01:46:37.417Z,8.93
2022-11-29T01:51:37.630Z,7.07
2022-11-29T01:54:05.334Z,10.05
2022-11-29T01:56:34.194Z,10.05
2022-11-29T01:59:07.939Z,9.70
2022-11-29T02:01:36.735Z,9.10
2022-11-29T02:04:05.411Z,7.93
2022-11-29T02:06:32.157Z,8.52
2022-11-29T02:08:58.749Z,8.45
2022-11-29T02:30:35.941Z,7.43
2022-11-29T02:41:58.283Z,8.35
2022-11-29T02:47:22.466Z,9.00
2022-11-29T02:50:19.245Z,9.13
2022-11-29T02:56:02.422Z,5.90
2022-11-29T02:58:38.305Z,7.32
2022-11-29T03:03:53.298Z,13.18
2022-11-29T03:09:12.030Z,8.07
2022-11-29T03:14:31.078Z,6.75
2022-11-29T03:17:25.345Z,5.70
2022-11-29T03:25:33.040Z,6.13
2022-11-29T03:28:06.438Z,8.18
2022-11-29T03:30:36.821Z,6.82
2022-11-29T03:36:02.037Z,6.97
2022-11-29T03:38:47.477Z,5.07
2022-11-29T03:41:40.344Z,6.72
2022-11-29T03:44:28.167Z,7.15
2022-11-29T03:47:03.469Z,5.88
2022-11-29T03:49:39.149Z,5.90
2022-11-29T03:52:35.644Z,6.70
2022-11-29T03:57:55.801Z,7.90
2022-11-29T04:06:14.992Z,7.13
2022-11-29T04:23:20.819Z,6.18
2022-11-29T04:29:03.972Z,7.13
2022-11-29T04:32:10.370Z,8.60
2022-11-29T04:35:10.606Z,7.80
2022-11-29T04:49:07.450Z,8.23
2022-11-29T04:54:37.699Z,9.32
2022-11-29T04:57:25.522Z,8.95
2022-11-29T05:00:06.167Z,7.28
2022-11-29T05:11:14.604Z,10.32
2022-11-29T05:22:44.455Z,8.40
2022-11-29T05:25:41.413Z,8.27
2022-11-29T05:33:42.694Z,6.70
2022-11-29T05:39:21.490Z,8.40
2022-11-29T05:44:51.077Z,6.97
2022-11-29T05:47:31.066Z,7.28
2022-11-29T05:50:22.894Z,6.45
2022-11-29T05:53:15.066Z,6.60
2022-11-29T05:58:49.493Z,11.68
2022-11-29T06:01:24.380Z,8.32
2022-11-29T06:04:15.193Z,7.55
2022-11-29T06:06:55.322Z,7.93
2022-11-29T06:12:19.543Z,8.27
2022-11-29T06:29:01.705Z,10.07
2022-11-29T06:31:34.333Z,9.38
2022-11-29T06:37:04.790Z,8.10
2022-11-29T06:39:31.629Z,8.52
2022-11-29T06:41:58.175Z,8.00
2022-11-29T06:44:25.020Z,7.95
2022-11-29T06:47:13.647Z,8.85
2022-11-29T06:50:13.449Z,6.82
2022-11-29T07:06:36.446Z,7.60
2022-11-29T07:09:16.489Z,7.95
2022-11-29T07:11:43.458Z,7.22
2022-11-29T07:14:10.901Z,8.15
2022-11-29T07:16:54.464Z,8.70
2022-11-29T07:25:02.119Z,9.05
2022-11-29T07:35:45.620Z,7.03
2022-11-29T07:38:51.939Z,7.80
2022-11-29T07:41:29.645Z,7.85
2022-11-29T07:44:13.041Z,7.65
2022-11-29T07:49:06.252Z,8.30
2022-11-29T07:51:32.894Z,7.85
2022-11-29T07:54:00.088Z,7.05
2022-11-29T07:56:26.661Z,6.57
2022-11-29T07:58:53.267Z,7.45
2022-11-29T08:01:19.979Z,6.88
2022-11-29T08:03:46.731Z,7.43
2022-11-29T08:06:13.260Z,6.65
2022-11-29T08:08:43.895Z,7.70
2022-11-29T08:11:12.710Z,6.07
2022-11-29T08:13:39.462Z,6.60
2022-11-29T08:16:06.283Z,5.70
2022-11-29T08:18:32.873Z,6.45
2022-11-29T08:20:59.454Z,6.65
2022-11-29T08:23:26.063Z,6.97
2022-11-29T08:25:59.793Z,6.70
2022-11-29T08:28:26.371Z,8.35
2022-11-29T08:31:01.392Z,6.90
2022-11-29T08:33:28.453Z,6.50
2022-11-29T08:35:55.098Z,7.15
2022-11-29T08:38:21.875Z,6.63
2022-11-29T08:40:48.454Z,8.52
2022-11-29T08:43:14.993Z,5.65
2022-11-29T08:45:41.560Z,5.65
2022-11-29T08:48:08.111Z,6.47
2022-11-29T08:50:34.713Z,6.72
2022-11-29T08:53:21.201Z,6.53
2022-11-29T08:55:47.757Z,5.72
2022-11-29T08:58:16.113Z,6.70
2022-11-29T09:00:47.583Z,7.45
2022-11-29T09:03:34.113Z,6.75
2022-11-29T09:06:11.977Z,7.13
2022-11-29T09:08:39.553Z,7.15
2022-11-29T09:11:09.180Z,7.63
2022-11-29T09:13:35.793Z,7.30
2022-11-29T09:16:07.318Z,5.60
2022-11-29T09:18:33.901Z,6.10
2022-11-29T09:21:00.495Z,6.03
2022-11-29T09:23:27.084Z,6.50
2022-11-29T09:25:54.544Z,6.30
2022-11-29T09:28:21.133Z,7.47
2022-11-29T09:30:47.724Z,7.25
2022-11-29T09:33:14.351Z,7.72
2022-11-29T09:35:40.881Z,7.28
2022-11-29T09:38:07.454Z,6.80
2022-11-29T09:40:40.280Z,7.10
2022-11-29T09:45:59.615Z,5.93
2022-11-29T09:54:05.620Z,5.72
2022-11-29T09:56:51.864Z,6.40
2022-11-29T09:59:29.127Z,7.72
2022-11-29T10:02:05.987Z,5.68
2022-11-29T10:04:40.397Z,5.93
2022-11-29T10:07:17.957Z,6.05
2022-11-29T10:09:48.985Z,7.22
2022-11-29T10:12:45.679Z,5.20
2022-11-29T10:15:21.162Z,5.68
2022-11-29T10:17:54.642Z,6.75
2022-11-29T10:20:27.952Z,6.60
2022-11-29T10:23:06.871Z,6.95
2022-11-29T10:25:46.358Z,6.30
2022-11-29T10:28:17.770Z,5.88
2022-11-29T10:30:44.933Z,5.72
2022-11-29T10:33:33.285Z,6.20
2022-11-29T10:36:04.509Z,5.88
2022-11-29T10:38:32.090Z,5.90
2022-11-29T10:41:07.616Z,5.75
2022-11-29T10:43:34.415Z,5.13
2022-11-29T10:46:02.536Z,7.63
2022-11-29T10:48:33.435Z,6.13
2022-11-29T10:51:01.416Z,7.32
2022-11-29T10:53:35.768Z,6.43
2022-11-29T10:56:29.613Z,6.57
2022-11-29T10:59:05.159Z,7.03
2022-11-29T11:01:33.940Z,9.32
2022-11-29T11:04:04.327Z,9.13
2022-11-29T11:11:58.490Z,7.00
2022-11-29T11:14:28.186Z,7.57
2022-11-29T11:16:55.060Z,7.70
2022-11-29T11:22:03.891Z,7.32
2022-11-29T11:24:36.045Z,8.88
2022-11-29T11:27:03.094Z,6.80
2022-11-29T11:29:45.472Z,7.70
2022-11-29T11:32:18.058Z,6.60
2022-11-29T11:34:55.079Z,7.38
2022-11-29T11:37:26.014Z,8.00
2022-11-29T11:39:56.094Z,7.68
2022-11-29T11:47:53.864Z,7.50
2022-11-29T11:50:44.162Z,7.57
2022-11-29T11:53:36.010Z,7.53
2022-11-29T11:56:14.154Z,8.27
2022-11-29T12:01:40.018Z,6.78
2022-11-29T12:04:15.090Z,5.03
2022-11-29T12:07:12.168Z,5.28
2022-11-29T12:09:45.006Z,5.65
2022-11-29T12:17:53.033Z,4.85
2022-11-29T12:26:06.371Z,4.70
2022-11-29T12:28:38.072Z,7.05
2022-11-29T12:37:13.208Z,6.90
2022-11-29T12:50:31.401Z,6.25
2022-11-29T12:53:27.104Z,6.40
2022-11-29T12:56:33.938Z,5.95
2022-11-29T12:59:28.870Z,5.95
2022-11-29T13:02:30.082Z,6.45
2022-11-29T13:22:21.259Z,7.55
2022-11-29T13:24:53.514Z,8.27
2022-11-29T13:27:27.330Z,9.02
2022-11-29T13:29:53.999Z,8.27
2022-11-29T13:32:48.071Z,7.57
2022-11-29T13:37:59.050Z,5.43
2022-11-29T13:43:19.193Z,7.90
2022-11-29T13:48:57.389Z,5.95
2022-11-29T13:54:03.610Z,4.40
2022-11-29T13:56:42.973Z,5.32
2022-11-29T13:59:17.630Z,5.05
2022-11-29T14:01:47.129Z,5.55
2022-11-29T14:07:15.511Z,4.65
2022-11-29T14:09:49.076Z,4.13
2022-11-29T14:17:56.341Z,7.03
2022-11-29T14:31:49.085Z,7.30
2022-11-29T14:34:21.003Z,7.68
2022-11-29T14:36:59.237Z,6.30
2022-11-29T14:39:34.088Z,5.72
2022-11-29T14:42:14.407Z,6.18
2022-11-29T14:45:01.079Z,6.07
2022-11-29T14:47:33.048Z,7.53
2022-11-29T14:50:04.153Z,6.40
2022-11-29T14:52:35.813Z,5.70
2022-11-29T14:55:09.476Z,5.43
2022-11-29T14:58:06.157Z,5.13
2022-11-29T15:03:13.276Z,11.93
2022-11-29T15:05:45.042Z,6.13
2022-11-29T15:08:20.429Z,5.50
2022-11-29T15:10:52.540Z,4.93
2022-11-29T15:13:27.083Z,5.10
2022-11-29T15:16:27.147Z,4.80
2022-11-29T15:24:26.744Z,4.95
2022-11-29T15:29:33.935Z,16.38
2022-11-29T15:32:05.414Z,10.02
2022-11-29T15:34:39.861Z,10.27
2022-11-29T15:37:06.684Z,12.82
2022-11-29T15:39:37.355Z,9.98
2022-11-29T15:42:11.865Z,9.25
2022-11-29T15:44:45.632Z,7.43
2022-11-29T15:49:54.099Z,6.00
2022-11-29T15:52:31.660Z,6.35
2022-11-29T15:55:03.422Z,5.85
2022-11-29T16:00:15.529Z,4.75
2022-11-29T16:02:50.865Z,4.20
2022-11-29T16:05:23.541Z,4.90
2022-11-29T16:07:53.758Z,4.75
2022-11-29T16:10:24.973Z,4.10
2022-11-29T16:15:32.989Z,6.18
2022-11-29T16:18:22.221Z,5.03
2022-11-29T16:21:06.087Z,3.85
2022-11-29T16:23:35.587Z,4.18
2022-11-29T16:28:45.880Z,3.13
2022-11-29T16:31:18.270Z,3.83
2022-11-29T16:33:47.522Z,3.28
2022-11-29T16:36:19.323Z,2.67
2022-11-29T16:38:49.146Z,4.72
2022-11-29T16:41:23.153Z,3.75
2022-11-29T16:43:55.432Z,4.20
2022-11-29T16:49:01.028Z,6.07
2022-11-29T16:51:43.825Z,4.93
2022-11-29T16:54:21.392Z,3.40
2022-11-29T16:56:49.644Z,4.50
2022-11-29T16:59:25.689Z,2.92
2022-11-29T17:01:55.583Z,4.70
2022-11-29T17:04:23.387Z,3.88
2022-11-29T17:06:51.658Z,2.55
2022-11-29T17:09:25.090Z,1.92
2022-11-29T17:11:51.995Z,4.18
2022-11-29T17:14:18.552Z,2.97
2022-11-29T17:16:47.616Z,3.88
2022-11-29T17:19:14.272Z,1.88
2022-11-29T17:21:40.957Z,1.95
2022-11-29T17:24:11.838Z,3.80
2022-11-29T17:26:38.473Z,2.20
2022-11-29T17:29:05.191Z,3.05
2022-11-29T17:31:31.895Z,1.85
2022-11-29T17:34:00.882Z,3.85
2022-11-29T17:36:27.910Z,3.50
2022-11-29T17:38:54.618Z,4.18
2022-11-29T17:41:24.550Z,3.95
2022-11-29T17:43:52.185Z,3.10
2022-11-29T17:48:55.621Z,3.20
2022-11-29T17:54:11.129Z,3.60
2022-11-29T17:56:38.133Z,2.30
2022-11-29T17:59:05.243Z,2.92
2022-11-29T18:01:34.079Z,3.22
2022-11-29T18:04:02.300Z,3.53
2022-11-29T18:06:36.120Z,2.90
2022-11-29T18:09:07.658Z,3.03
2022-11-29T18:11:46.336Z,2.67
2022-11-29T18:14:16.119Z,3.28
2022-11-29T18:16:44.981Z,4.57
2022-11-29T18:19:14.762Z,3.63
2022-11-29T18:21:41.396Z,3.40
2022-11-29T18:24:08.402Z,4.57
2022-11-29T18:26:36.350Z,3.10
2022-11-29T18:29:03.720Z,3.53
2022-11-29T18:31:32.781Z,4.00
2022-11-29T18:34:01.200Z,3.55
2022-11-29T18:36:30.787Z,3.10
2022-11-29T18:39:00.588Z,3.95
2022-11-29T18:41:29.518Z,3.45
2022-11-29T18:43:58.937Z,3.97
2022-11-29T18:46:26.379Z,3.35
2022-11-29T18:48:53.005Z,3.25
2022-11-29T18:51:20.541Z,4.00
2022-11-29T18:53:47.150Z,4.68
2022-11-29T18:56:16.095Z,3.05
2022-11-29T18:58:44.172Z,2.92
2022-11-29T19:01:19.486Z,4.28
2022-11-29T19:03:50.552Z,3.65
2022-11-29T19:06:20.441Z,3.97
2022-11-29T19:08:47.892Z,4.30
2022-11-29T19:11:16.905Z,3.63
2022-11-29T19:13:44.153Z,3.80
2022-11-29T19:16:14.549Z,3.40
2022-11-29T19:21:11.760Z,3.42
2022-11-29T19:23:38.704Z,3.50
2022-11-29T19:26:09.370Z,2.92
2022-11-29T19:28:39.908Z,3.13
2022-11-29T19:31:07.431Z,3.42
2022-11-29T19:33:35.239Z,3.05
2022-11-29T19:36:20.414Z,3.63
2022-11-29T19:38:51.746Z,3.63
2022-11-29T19:41:24.294Z,3.88
2022-11-29T19:43:51.511Z,4.38
2022-11-29T19:46:20.746Z,2.95
2022-11-29T19:48:47.857Z,3.15
2022-11-29T19:51:17.537Z,3.28
2022-11-29T19:53:45.491Z,3.20
2022-11-29T19:56:15.005Z,3.28
2022-11-29T19:58:42.916Z,3.33
2022-11-29T20:03:46.502Z,2.53
2022-11-29T20:06:13.717Z,3.28
2022-11-29T20:08:41.080Z,3.60
2022-11-29T20:11:13.551Z,3.45
2022-11-29T20:13:42.628Z,3.58
2022-11-29T20:16:12.217Z,3.53
2022-11-29T20:18:43.562Z,3.92
2022-11-29T20:21:16.052Z,3.08
2022-11-29T20:23:43.386Z,3.78
2022-11-29T20:26:14.367Z,4.50
2022-11-29T20:28:41.546Z,3.95
2022-11-29T20:31:10.239Z,4.07
2022-11-29T20:33:38.758Z,4.63
2022-11-29T20:38:50.512Z,4.28
2022-11-29T20:41:27.812Z,4.07
2022-11-29T20:43:58.209Z,4.68
2022-11-29T20:48:53.581Z,3.95
2022-11-29T20:51:26.054Z,4.20
2022-11-29T20:53:52.602Z,4.60
2022-11-29T20:56:19.241Z,4.65
2022-11-29T20:58:45.782Z,3.70
2022-11-29T21:01:12.501Z,4.13
2022-11-29T21:03:39.222Z,4.97
2022-11-29T21:06:06.490Z,4.57
2022-11-29T21:08:33.952Z,4.80
2022-11-29T21:11:04.630Z,3.75
2022-11-29T21:13:32.021Z,5.50
2022-11-29T21:15:59.530Z,4.03
2022-11-29T21:18:28.300Z,5.03
2022-11-29T21:21:35.050Z,6.13
2022-11-29T21:24:30.888Z,5.18
2022-11-29T21:26:58.450Z,4.60
2022-11-29T21:29:25.439Z,5.05
2022-11-29T21:31:54.036Z,4.60
2022-11-29T21:34:21.530Z,4.85
2022-11-29T21:36:55.582Z,5.35
2022-11-29T21:39:24.338Z,4.03
2022-11-29T21:41:50.870Z,5.10
2022-11-29T21:44:17.464Z,5.43
2022-11-29T21:46:44.087Z,4.13
2022-11-29T21:49:10.699Z,5.82
2022-11-29T21:51:37.284Z,5.00
2022-11-29T21:54:03.967Z,4.72
2022-11-29T21:56:30.564Z,5.65
2022-11-29T21:58:57.243Z,4.45
2022-11-29T22:01:23.963Z,4.28
2022-11-29T22:03:53.338Z,4.32
2022-11-29T22:06:21.262Z,4.18
2022-11-29T22:08:48.673Z,4.70
2022-11-29T22:11:17.286Z,4.40
2022-11-29T22:14:04.416Z,4.57
2022-11-29T22:16:31.152Z,4.65
2022-11-29T22:18:57.788Z,4.78
2022-11-29T22:21:24.535Z,4.80
2022-11-29T22:23:52.592Z,4.47
2022-11-29T22:26:19.153Z,4.38
2022-11-29T22:28:45.713Z,4.88
2022-11-29T22:31:12.909Z,4.40
2022-11-29T22:33:40.047Z,4.57
2022-11-29T22:36:09.913Z,4.75
2022-11-29T22:38:37.628Z,5.30
2022-11-29T22:41:13.574Z,5.25
2022-11-29T22:43:41.252Z,4.97
2022-11-29T22:48:47.077Z,4.78
2022-11-29T22:51:17.016Z,5.85
2022-11-29T22:53:49.127Z,4.80
2022-11-29T22:56:15.930Z,6.90
2022-11-29T22:58:42.597Z,5.25
2022-11-29T23:01:14.253Z,6.20
2022-11-29T23:03:43.421Z,7.25
2022-11-29T23:06:13.409Z,6.82
2022-11-29T23:08:41.458Z,6.75
2022-11-29T23:11:11.554Z,6.22
2022-11-29T23:13:40.793Z,7.38
2022-11-29T23:16:10.404Z,6.72
2022-11-29T23:18:38.462Z,4.82
2022-11-29T23:23:42.754Z,6.03
2022-11-29T23:26:17.073Z,6.38
2022-11-29T23:28:43.622Z,4.65
2022-11-29T23:31:10.179Z,7.20
2022-11-29T23:33:36.776Z,7.00
2022-11-29T23:36:05.813Z,7.72
2022-11-29T23:38:33.232Z,6.82
2022-11-29T23:40:59.957Z,6.18
2022-11-29T23:43:29.691Z,7.32
2022-11-29T23:45:56.644Z,4.50
2022-11-29T23:48:23.310Z,7.63
2022-11-29T23:50:49.974Z,7.30
2022-11-29T23:53:18.598Z,7.55
2022-11-29T23:55:47.927Z,8.13
2022-11-29T23:58:14.472Z,7.78
